sensor_id;sensor_type;location;lat;lon;timestamp;temperature;humidity
1021;DHT22;499;42.648;23.270;2022-10-03T00:01:19;11.00;90.60
1021;DHT22;499;42.648;23.270;2022-10-03T00:03:59;11.00;92.00
1021;DHT22;499;42.648;23.270;2022-10-03T00:06:40;10.90;93.00
1021;DHT22;499;42.648;23.270;2022-10-03T00:09:32;10.90;93.10
1021;DHT22;499;42.648;23.270;2022-10-03T00:12:11;10.90;93.60
1021;DHT22;499;42.648;23.270;2022-10-03T00:14:47;10.90;93.60
1021;DHT22;499;42.648;23.270;2022-10-03T00:17:22;10.90;93.20
1021;DHT22;499;42.648;23.270;2022-10-03T00:19:58;10.90;93.10
1021;DHT22;499;42.648;23.270;2022-10-03T00:22:36;10.80;93.00
1021;DHT22;499;42.648;23.270;2022-10-03T00:25:27;10.80;93.60
1021;DHT22;499;42.648;23.270;2022-10-03T00:28:08;10.70;94.00
1021;DHT22;499;42.648;23.270;2022-10-03T00:31:06;10.60;93.60
1021;DHT22;499;42.648;23.270;2022-10-03T00:33:43;10.60;94.00
1021;DHT22;499;42.648;23.270;2022-10-03T00:36:19;10.40;94.90
1021;DHT22;499;42.648;23.270;2022-10-03T00:39:16;10.30;95.80
1021;DHT22;499;42.648;23.270;2022-10-03T00:42:23;10.30;96.30
1021;DHT22;499;42.648;23.270;2022-10-03T00:45:34;10.20;97.60
1021;DHT22;499;42.648;23.270;2022-10-03T00:51:17;10.30;98.30
1021;DHT22;499;42.648;23.270;2022-10-03T00:53:54;10.30;97.90
1021;DHT22;499;42.648;23.270;2022-10-03T00:56:45;10.30;96.80
1021;DHT22;499;42.648;23.270;2022-10-03T00:59:28;10.30;96.80
1021;DHT22;499;42.648;23.270;2022-10-03T01:02:20;10.20;96.70
1021;DHT22;499;42.648;23.270;2022-10-03T01:04:57;10.30;97.10
1021;DHT22;499;42.648;23.270;2022-10-03T01:07:54;10.30;96.80
1021;DHT22;499;42.648;23.270;2022-10-03T01:10:28;10.20;96.70
1021;DHT22;499;42.648;23.270;2022-10-03T01:13:09;10.40;96.30
1021;DHT22;499;42.648;23.270;2022-10-03T01:15:50;10.20;96.10
1021;DHT22;499;42.648;23.270;2022-10-03T01:18:31;10.30;96.20
1021;DHT22;499;42.648;23.270;2022-10-03T01:21:10;10.10;96.30
1021;DHT22;499;42.648;23.270;2022-10-03T01:24:02;10.10;97.30
1021;DHT22;499;42.648;23.270;2022-10-03T01:26:54;10.20;97.50
1021;DHT22;499;42.648;23.270;2022-10-03T01:29:34;10.20;96.70
1021;DHT22;499;42.648;23.270;2022-10-03T01:32:25;10.20;96.00
1021;DHT22;499;42.648;23.270;2022-10-03T01:35:03;10.20;96.70
1021;DHT22;499;42.648;23.270;2022-10-03T01:37:39;10.20;96.40
1021;DHT22;499;42.648;23.270;2022-10-03T01:40:15;10.20;96.50
1021;DHT22;499;42.648;23.270;2022-10-03T01:42:53;10.10;96.10
1021;DHT22;499;42.648;23.270;2022-10-03T01:45:28;10.10;96.50
1021;DHT22;499;42.648;23.270;2022-10-03T01:48:00;10.00;97.30
1021;DHT22;499;42.648;23.270;2022-10-03T01:50:33;10.10;97.40
1021;DHT22;499;42.648;23.270;2022-10-03T01:53:05;10.00;96.70
1021;DHT22;499;42.648;23.270;2022-10-03T01:55:44;10.00;97.80
1021;DHT22;499;42.648;23.270;2022-10-03T01:58:24;10.00;97.00
1021;DHT22;499;42.648;23.270;2022-10-03T02:00:58;9.90;98.60
1021;DHT22;499;42.648;23.270;2022-10-03T02:03:36;9.90;99.00
1021;DHT22;499;42.648;23.270;2022-10-03T02:06:18;10.10;99.40
1021;DHT22;499;42.648;23.270;2022-10-03T02:08:53;9.70;99.90
1021;DHT22;499;42.648;23.270;2022-10-03T02:11:27;9.80;99.90
1021;DHT22;499;42.648;23.270;2022-10-03T02:14:00;9.70;99.90
1021;DHT22;499;42.648;23.270;2022-10-03T02:16:37;9.80;99.90
1021;DHT22;499;42.648;23.270;2022-10-03T02:19:14;9.70;99.90
1021;DHT22;499;42.648;23.270;2022-10-03T02:21:47;9.70;99.90
1021;DHT22;499;42.648;23.270;2022-10-03T02:24:28;9.70;99.90
1021;DHT22;499;42.648;23.270;2022-10-03T02:27:27;9.80;99.90
1021;DHT22;499;42.648;23.270;2022-10-03T02:30:14;9.80;99.90
1021;DHT22;499;42.648;23.270;2022-10-03T02:39:19;9.90;99.90
1021;DHT22;499;42.648;23.270;2022-10-03T02:51:29;10.00;99.90
1021;DHT22;499;42.648;23.270;2022-10-03T03:00:08;10.20;99.90
1021;DHT22;499;42.648;23.270;2022-10-03T03:06:14;10.20;99.90
1021;DHT22;499;42.648;23.270;2022-10-03T03:16:07;10.30;99.90
1021;DHT22;499;42.648;23.270;2022-10-03T03:18:38;10.40;99.90
1021;DHT22;499;42.648;23.270;2022-10-03T03:21:16;10.50;99.90
1021;DHT22;499;42.648;23.270;2022-10-03T03:24:17;10.50;99.90
1021;DHT22;499;42.648;23.270;2022-10-03T03:27:03;10.50;99.90
1021;DHT22;499;42.648;23.270;2022-10-03T03:29:41;10.40;99.90
1021;DHT22;499;42.648;23.270;2022-10-03T03:32:18;10.50;99.90
1021;DHT22;499;42.648;23.270;2022-10-03T03:34:56;10.60;99.90
1021;DHT22;499;42.648;23.270;2022-10-03T03:37:30;10.60;99.70
1021;DHT22;499;42.648;23.270;2022-10-03T03:40:10;10.60;99.80
1021;DHT22;499;42.648;23.270;2022-10-03T03:43:01;10.50;99.90
1021;DHT22;499;42.648;23.270;2022-10-03T03:45:44;10.60;99.90
1021;DHT22;499;42.648;23.270;2022-10-03T03:51:22;10.50;99.90
1021;DHT22;499;42.648;23.270;2022-10-03T03:57:27;10.60;99.90
1021;DHT22;499;42.648;23.270;2022-10-03T04:00:10;10.60;99.90
1021;DHT22;499;42.648;23.270;2022-10-03T04:02:53;10.60;99.90
1021;DHT22;499;42.648;23.270;2022-10-03T04:05:37;10.60;99.90
1021;DHT22;499;42.648;23.270;2022-10-03T04:08:29;10.60;99.90
1021;DHT22;499;42.648;23.270;2022-10-03T04:11:10;10.60;99.90
1021;DHT22;499;42.648;23.270;2022-10-03T04:17:18;10.40;99.90
1021;DHT22;499;42.648;23.270;2022-10-03T04:20:17;10.50;99.90
1021;DHT22;499;42.648;23.270;2022-10-03T04:23:15;10.60;99.90
1021;DHT22;499;42.648;23.270;2022-10-03T04:26:10;10.60;99.90
1021;DHT22;499;42.648;23.270;2022-10-03T04:31:57;10.40;99.90
1021;DHT22;499;42.648;23.270;2022-10-03T04:34:36;10.40;99.90
1021;DHT22;499;42.648;23.270;2022-10-03T04:37:19;10.40;99.90
1021;DHT22;499;42.648;23.270;2022-10-03T04:40:15;10.60;99.90
1021;DHT22;499;42.648;23.270;2022-10-03T04:42:51;10.70;99.90
1021;DHT22;499;42.648;23.270;2022-10-03T04:45:37;10.90;99.90
1021;DHT22;499;42.648;23.270;2022-10-03T04:48:13;11.00;99.90
1021;DHT22;499;42.648;23.270;2022-10-03T04:50:48;10.90;99.90
1021;DHT22;499;42.648;23.270;2022-10-03T04:53:26;11.00;99.90
1021;DHT22;499;42.648;23.270;2022-10-03T04:56:10;11.20;99.90
1021;DHT22;499;42.648;23.270;2022-10-03T04:58:45;11.20;99.90
1021;DHT22;499;42.648;23.270;2022-10-03T05:01:19;11.30;99.90
1021;DHT22;499;42.648;23.270;2022-10-03T05:03:53;11.20;99.10
1021;DHT22;499;42.648;23.270;2022-10-03T05:06:36;11.30;99.60
1021;DHT22;499;42.648;23.270;2022-10-03T05:09:19;11.30;97.20
1021;DHT22;499;42.648;23.270;2022-10-03T05:11:55;11.10;97.90
1021;DHT22;499;42.648;23.270;2022-10-03T05:14:32;11.30;98.30
1021;DHT22;499;42.648;23.270;2022-10-03T05:17:11;11.40;98.40
1021;DHT22;499;42.648;23.270;2022-10-03T05:19:59;11.50;98.00
1021;DHT22;499;42.648;23.270;2022-10-03T05:22:39;11.60;97.30
1021;DHT22;499;42.648;23.270;2022-10-03T05:28:05;11.80;94.90
1021;DHT22;499;42.648;23.270;2022-10-03T05:30:40;11.70;96.40
1021;DHT22;499;42.648;23.270;2022-10-03T05:33:17;11.80;95.70
1021;DHT22;499;42.648;23.270;2022-10-03T05:35:57;11.90;95.00
1021;DHT22;499;42.648;23.270;2022-10-03T05:38:43;12.00;93.60
1021;DHT22;499;42.648;23.270;2022-10-03T05:41:21;12.00;93.20
1021;DHT22;499;42.648;23.270;2022-10-03T05:44:00;12.00;95.60
1021;DHT22;499;42.648;23.270;2022-10-03T05:46:49;12.20;94.70
1021;DHT22;499;42.648;23.270;2022-10-03T05:49:48;12.30;93.70
1021;DHT22;499;42.648;23.270;2022-10-03T05:52:45;12.30;92.80
1021;DHT22;499;42.648;23.270;2022-10-03T05:55:26;12.40;91.90
1021;DHT22;499;42.648;23.270;2022-10-03T05:58:24;12.30;93.20
1021;DHT22;499;42.648;23.270;2022-10-03T06:01:25;12.10;93.10
1021;DHT22;499;42.648;23.270;2022-10-03T06:04:17;12.10;95.30
1021;DHT22;499;42.648;23.270;2022-10-03T06:07:01;12.20;93.20
1021;DHT22;499;42.648;23.270;2022-10-03T06:10:03;12.10;93.60
1021;DHT22;499;42.648;23.270;2022-10-03T06:12:42;12.20;93.40
1021;DHT22;499;42.648;23.270;2022-10-03T06:15:37;12.20;93.10
1021;DHT22;499;42.648;23.270;2022-10-03T06:24:39;12.60;88.50
1021;DHT22;499;42.648;23.270;2022-10-03T06:27:41;12.70;89.00
1021;DHT22;499;42.648;23.270;2022-10-03T06:30:32;12.90;90.70
1021;DHT22;499;42.648;23.270;2022-10-03T06:33:39;13.00;88.40
1021;DHT22;499;42.648;23.270;2022-10-03T06:42:42;13.00;88.50
1021;DHT22;499;42.648;23.270;2022-10-03T06:48:33;13.30;75.50
1021;DHT22;499;42.648;23.270;2022-10-03T06:51:33;13.30;82.50
1021;DHT22;499;42.648;23.270;2022-10-03T06:57:22;13.20;76.20
1021;DHT22;499;42.648;23.270;2022-10-03T07:00:11;13.00;80.70
1021;DHT22;499;42.648;23.270;2022-10-03T07:03:03;13.00;85.00
1021;DHT22;499;42.648;23.270;2022-10-03T07:06:01;13.00;75.70
1021;DHT22;499;42.648;23.270;2022-10-03T07:11:39;13.10;78.50
1021;DHT22;499;42.648;23.270;2022-10-03T07:14:49;13.00;78.90
1021;DHT22;499;42.648;23.270;2022-10-03T07:17:41;12.80;80.50
1021;DHT22;499;42.648;23.270;2022-10-03T07:20:40;12.50;81.80
1021;DHT22;499;42.648;23.270;2022-10-03T07:23:47;12.40;85.60
1021;DHT22;499;42.648;23.270;2022-10-03T07:26:55;12.40;90.00
1021;DHT22;499;42.648;23.270;2022-10-03T07:29:51;12.30;93.70
1021;DHT22;499;42.648;23.270;2022-10-03T07:32:42;12.40;94.80
1021;DHT22;499;42.648;23.270;2022-10-03T07:35:36;12.50;95.00
1021;DHT22;499;42.648;23.270;2022-10-03T07:41:56;12.50;93.80
1021;DHT22;499;42.648;23.270;2022-10-03T07:44:50;12.40;94.60
1021;DHT22;499;42.648;23.270;2022-10-03T07:47:55;12.40;96.40
1021;DHT22;499;42.648;23.270;2022-10-03T07:50:47;12.30;98.80
1021;DHT22;499;42.648;23.270;2022-10-03T07:56:40;12.30;99.90
1021;DHT22;499;42.648;23.270;2022-10-03T07:59:29;12.40;99.90
1021;DHT22;499;42.648;23.270;2022-10-03T08:02:23;12.50;99.90
1021;DHT22;499;42.648;23.270;2022-10-03T08:05:20;12.60;99.90
1021;DHT22;499;42.648;23.270;2022-10-03T08:08:09;12.70;99.90
1021;DHT22;499;42.648;23.270;2022-10-03T08:11:16;12.70;99.90
1021;DHT22;499;42.648;23.270;2022-10-03T08:14:06;12.90;99.90
1021;DHT22;499;42.648;23.270;2022-10-03T08:22:56;13.00;99.90
1021;DHT22;499;42.648;23.270;2022-10-03T08:25:31;13.10;99.90
1021;DHT22;499;42.648;23.270;2022-10-03T08:28:31;13.10;99.90
1021;DHT22;499;42.648;23.270;2022-10-03T08:34:22;13.20;99.90
1021;DHT22;499;42.648;23.270;2022-10-03T08:43:21;13.30;95.50
1021;DHT22;499;42.648;23.270;2022-10-03T08:46:05;13.30;96.10
1021;DHT22;499;42.648;23.270;2022-10-03T08:49:04;13.40;96.20
1021;DHT22;499;42.648;23.270;2022-10-03T08:51:55;13.50;96.20
1021;DHT22;499;42.648;23.270;2022-10-03T08:54:53;13.70;95.60
1021;DHT22;499;42.648;23.270;2022-10-03T08:57:49;13.80;95.20
1021;DHT22;499;42.648;23.270;2022-10-03T09:00:21;13.90;93.10
1021;DHT22;499;42.648;23.270;2022-10-03T09:03:35;13.90;90.10
1021;DHT22;499;42.648;23.270;2022-10-03T09:06:49;14.00;86.90
1021;DHT22;499;42.648;23.270;2022-10-03T09:09:45;14.10;85.40
1021;DHT22;499;42.648;23.270;2022-10-03T09:12:40;14.10;79.80
1021;DHT22;499;42.648;23.270;2022-10-03T09:18:24;14.10;81.80
1021;DHT22;499;42.648;23.270;2022-10-03T09:21:14;14.10;78.40
1021;DHT22;499;42.648;23.270;2022-10-03T09:24:20;14.20;84.70
1021;DHT22;499;42.648;23.270;2022-10-03T09:27:18;14.20;72.40
1021;DHT22;499;42.648;23.270;2022-10-03T09:33:29;14.30;86.60
1021;DHT22;499;42.648;23.270;2022-10-03T09:36:25;14.30;84.70
1021;DHT22;499;42.648;23.270;2022-10-03T09:39:04;14.30;86.60
1021;DHT22;499;42.648;23.270;2022-10-03T09:45:22;14.70;84.80
1021;DHT22;499;42.648;23.270;2022-10-03T09:48:25;14.70;74.90
1021;DHT22;499;42.648;23.270;2022-10-03T09:51:08;14.70;71.00
1021;DHT22;499;42.648;23.270;2022-10-03T09:57:28;15.00;67.40
1021;DHT22;499;42.648;23.270;2022-10-03T10:00:15;14.90;71.10
1021;DHT22;499;42.648;23.270;2022-10-03T10:06:12;14.90;67.20
1021;DHT22;499;42.648;23.270;2022-10-03T10:12:32;14.60;67.90
1021;DHT22;499;42.648;23.270;2022-10-03T10:15:21;14.60;69.50
1021;DHT22;499;42.648;23.270;2022-10-03T10:21:39;14.30;61.50
1021;DHT22;499;42.648;23.270;2022-10-03T10:33:41;14.70;58.80
1021;DHT22;499;42.648;23.270;2022-10-03T10:37:00;14.60;49.10
1021;DHT22;499;42.648;23.270;2022-10-03T10:43:19;15.00;43.40
1021;DHT22;499;42.648;23.270;2022-10-03T10:52:45;15.20;37.80
1021;DHT22;499;42.648;23.270;2022-10-03T11:05:41;15.00;38.20
1021;DHT22;499;42.648;23.270;2022-10-03T11:21:39;14.70;39.90
1021;DHT22;499;42.648;23.270;2022-10-03T11:28:04;14.50;42.80
1021;DHT22;499;42.648;23.270;2022-10-03T11:40:10;14.40;45.40
1021;DHT22;499;42.648;23.270;2022-10-03T11:42:52;14.50;44.40
1021;DHT22;499;42.648;23.270;2022-10-03T11:45:26;14.70;45.80
1021;DHT22;499;42.648;23.270;2022-10-03T11:48:11;14.80;41.40
1021;DHT22;499;42.648;23.270;2022-10-03T11:50:46;14.70;38.10
1021;DHT22;499;42.648;23.270;2022-10-03T11:53:22;14.70;35.10
1021;DHT22;499;42.648;23.270;2022-10-03T11:56:04;14.80;35.20
1021;DHT22;499;42.648;23.270;2022-10-03T11:58:46;14.60;36.20
1021;DHT22;499;42.648;23.270;2022-10-03T12:01:27;14.50;35.70
1021;DHT22;499;42.648;23.270;2022-10-03T12:04:09;14.70;35.10
1021;DHT22;499;42.648;23.270;2022-10-03T12:06:48;14.50;33.20
1021;DHT22;499;42.648;23.270;2022-10-03T12:09:42;14.50;33.90
1021;DHT22;499;42.648;23.270;2022-10-03T12:12:17;14.50;34.90
1021;DHT22;499;42.648;23.270;2022-10-03T12:14:55;14.40;36.50
1021;DHT22;499;42.648;23.270;2022-10-03T12:17:31;14.30;38.00
1021;DHT22;499;42.648;23.270;2022-10-03T12:20:03;14.10;39.70
1021;DHT22;499;42.648;23.270;2022-10-03T12:22:47;14.00;41.40
1021;DHT22;499;42.648;23.270;2022-10-03T12:25:20;14.00;41.30
1021;DHT22;499;42.648;23.270;2022-10-03T12:27:57;14.00;42.30
1021;DHT22;499;42.648;23.270;2022-10-03T12:30:28;13.90;41.90
1021;DHT22;499;42.648;23.270;2022-10-03T12:33:09;13.90;41.50
1021;DHT22;499;42.648;23.270;2022-10-03T12:35:46;14.00;33.20
1021;DHT22;499;42.648;23.270;2022-10-03T12:38:24;14.10;34.50
1021;DHT22;499;42.648;23.270;2022-10-03T12:41:07;14.30;31.50
1021;DHT22;499;42.648;23.270;2022-10-03T12:43:50;14.30;27.70
1021;DHT22;499;42.648;23.270;2022-10-03T12:46:28;14.40;27.80
1021;DHT22;499;42.648;23.270;2022-10-03T12:49:01;14.60;28.10
1021;DHT22;499;42.648;23.270;2022-10-03T12:51:50;14.70;26.30
1021;DHT22;499;42.648;23.270;2022-10-03T12:54:42;14.80;26.50
1021;DHT22;499;42.648;23.270;2022-10-03T13:00:15;14.50;26.60
1021;DHT22;499;42.648;23.270;2022-10-03T13:02:56;14.50;26.30
1021;DHT22;499;42.648;23.270;2022-10-03T13:05:37;14.60;27.10
1021;DHT22;499;42.648;23.270;2022-10-03T13:08:20;14.60;25.40
1021;DHT22;499;42.648;23.270;2022-10-03T13:10:58;14.40;24.30
1021;DHT22;499;42.648;23.270;2022-10-03T13:13:31;14.40;24.20
1021;DHT22;499;42.648;23.270;2022-10-03T13:16:16;14.40;24.80
1021;DHT22;499;42.648;23.270;2022-10-03T13:18:51;14.50;25.30
1021;DHT22;499;42.648;23.270;2022-10-03T13:21:25;14.60;25.00
1021;DHT22;499;42.648;23.270;2022-10-03T13:23:57;14.70;25.00
1021;DHT22;499;42.648;23.270;2022-10-03T13:26:41;14.50;25.10
1021;DHT22;499;42.648;23.270;2022-10-03T13:29:18;14.60;26.40
1021;DHT22;499;42.648;23.270;2022-10-03T13:32:14;14.50;25.30
1021;DHT22;499;42.648;23.270;2022-10-03T13:34:56;14.40;24.30
1021;DHT22;499;42.648;23.270;2022-10-03T13:40:47;14.60;25.80
1021;DHT22;499;42.648;23.270;2022-10-03T13:43:23;14.60;25.00
1021;DHT22;499;42.648;23.270;2022-10-03T13:45:53;14.60;25.00
1021;DHT22;499;42.648;23.270;2022-10-03T13:48:24;14.60;25.70
1021;DHT22;499;42.648;23.270;2022-10-03T13:50:56;14.50;24.90
1021;DHT22;499;42.648;23.270;2022-10-03T13:53:43;14.40;24.60
1021;DHT22;499;42.648;23.270;2022-10-03T13:56:21;14.40;24.60
1021;DHT22;499;42.648;23.270;2022-10-03T13:58:58;14.40;23.80
1021;DHT22;499;42.648;23.270;2022-10-03T14:01:39;14.50;24.60
1021;DHT22;499;42.648;23.270;2022-10-03T14:04:30;14.50;22.80
1021;DHT22;499;42.648;23.270;2022-10-03T14:07:09;14.50;22.70
1021;DHT22;499;42.648;23.270;2022-10-03T14:10:03;14.60;23.50
1021;DHT22;499;42.648;23.270;2022-10-03T14:12:43;14.50;22.40
1021;DHT22;499;42.648;23.270;2022-10-03T14:15:25;14.40;21.40
1021;DHT22;499;42.648;23.270;2022-10-03T14:18:06;14.40;22.40
1021;DHT22;499;42.648;23.270;2022-10-03T14:23:34;14.40;22.40
1021;DHT22;499;42.648;23.270;2022-10-03T14:26:06;14.40;22.70
1021;DHT22;499;42.648;23.270;2022-10-03T14:28:43;14.30;22.30
1021;DHT22;499;42.648;23.270;2022-10-03T14:31:21;14.30;22.30
1021;DHT22;499;42.648;23.270;2022-10-03T14:33:57;14.20;23.10
1021;DHT22;499;42.648;23.270;2022-10-03T14:36:34;14.10;22.40
1021;DHT22;499;42.648;23.270;2022-10-03T14:39:11;14.00;23.80
1021;DHT22;499;42.648;23.270;2022-10-03T14:42:06;13.90;22.60
1021;DHT22;499;42.648;23.270;2022-10-03T14:44:39;13.80;21.90
1021;DHT22;499;42.648;23.270;2022-10-03T14:47:11;13.80;22.30
1021;DHT22;499;42.648;23.270;2022-10-03T14:49:46;13.60;22.90
1021;DHT22;499;42.648;23.270;2022-10-03T14:52:22;13.60;23.50
1021;DHT22;499;42.648;23.270;2022-10-03T14:54:52;13.60;24.20
1021;DHT22;499;42.648;23.270;2022-10-03T14:57:29;13.50;23.90
1021;DHT22;499;42.648;23.270;2022-10-03T14:59:57;13.40;25.60
1021;DHT22;499;42.648;23.270;2022-10-03T15:02:29;13.30;27.00
1021;DHT22;499;42.648;23.270;2022-10-03T15:05:05;13.20;29.30
1021;DHT22;499;42.648;23.270;2022-10-03T15:07:35;13.10;31.90
1021;DHT22;499;42.648;23.270;2022-10-03T15:10:07;13.10;34.50
1021;DHT22;499;42.648;23.270;2022-10-03T15:12:36;13.00;37.00
1021;DHT22;499;42.648;23.270;2022-10-03T15:15:06;13.00;38.40
1021;DHT22;499;42.648;23.270;2022-10-03T15:17:44;12.90;38.30
1021;DHT22;499;42.648;23.270;2022-10-03T15:20:12;12.90;30.10
1021;DHT22;499;42.648;23.270;2022-10-03T15:22:47;13.00;27.00
1021;DHT22;499;42.648;23.270;2022-10-03T15:25:17;12.90;24.60
1021;DHT22;499;42.648;23.270;2022-10-03T15:27:49;12.90;24.70
1021;DHT22;499;42.648;23.270;2022-10-03T15:30:22;12.90;24.50
1021;DHT22;499;42.648;23.270;2022-10-03T15:32:53;12.90;25.00
1021;DHT22;499;42.648;23.270;2022-10-03T15:35:26;12.80;25.50
1021;DHT22;499;42.648;23.270;2022-10-03T15:37:57;12.70;25.60
1021;DHT22;499;42.648;23.270;2022-10-03T15:40:30;12.70;26.00
1021;DHT22;499;42.648;23.270;2022-10-03T15:43:05;12.60;25.00
1021;DHT22;499;42.648;23.270;2022-10-03T15:45:34;12.50;26.00
1021;DHT22;499;42.648;23.270;2022-10-03T15:48:05;12.40;25.80
1021;DHT22;499;42.648;23.270;2022-10-03T15:50:39;12.40;25.90
1021;DHT22;499;42.648;23.270;2022-10-03T15:53:12;12.30;27.20
1021;DHT22;499;42.648;23.270;2022-10-03T15:55:46;12.30;27.20
1021;DHT22;499;42.648;23.270;2022-10-03T15:58:17;12.20;27.90
1021;DHT22;499;42.648;23.270;2022-10-03T16:00:51;12.10;28.50
1021;DHT22;499;42.648;23.270;2022-10-03T16:03:27;12.10;28.50
1021;DHT22;499;42.648;23.270;2022-10-03T16:06:01;12.00;27.90
1021;DHT22;499;42.648;23.270;2022-10-03T16:08:31;11.90;28.40
1021;DHT22;499;42.648;23.270;2022-10-03T16:11:06;11.90;28.40
1021;DHT22;499;42.648;23.270;2022-10-03T16:13:37;11.90;29.40
1021;DHT22;499;42.648;23.270;2022-10-03T16:16:17;11.80;30.00
1021;DHT22;499;42.648;23.270;2022-10-03T16:19:18;11.90;30.30
1021;DHT22;499;42.648;23.270;2022-10-03T16:21:47;11.90;29.90
1021;DHT22;499;42.648;23.270;2022-10-03T16:24:30;11.90;31.30
1021;DHT22;499;42.648;23.270;2022-10-03T16:27:06;12.00;30.50
1021;DHT22;499;42.648;23.270;2022-10-03T16:29:35;11.90;32.00
1021;DHT22;499;42.648;23.270;2022-10-03T16:32:05;11.90;32.60
1021;DHT22;499;42.648;23.270;2022-10-03T16:34:36;11.90;32.70
1021;DHT22;499;42.648;23.270;2022-10-03T16:37:16;11.90;33.40
1021;DHT22;499;42.648;23.270;2022-10-03T16:39:50;12.00;33.40
1021;DHT22;499;42.648;23.270;2022-10-03T16:42:20;12.00;34.70
1021;DHT22;499;42.648;23.270;2022-10-03T16:44:51;12.00;34.80
1021;DHT22;499;42.648;23.270;2022-10-03T16:47:29;12.00;35.40
1021;DHT22;499;42.648;23.270;2022-10-03T16:49:59;12.00;35.70
1021;DHT22;499;42.648;23.270;2022-10-03T16:52:46;12.00;35.50
1021;DHT22;499;42.648;23.270;2022-10-03T16:55:16;12.00;34.50
1021;DHT22;499;42.648;23.270;2022-10-03T16:57:46;12.00;34.90
1021;DHT22;499;42.648;23.270;2022-10-03T17:00:20;11.90;34.20
1021;DHT22;499;42.648;23.270;2022-10-03T17:02:48;12.00;33.60
1021;DHT22;499;42.648;23.270;2022-10-03T17:05:18;12.00;34.60
1021;DHT22;499;42.648;23.270;2022-10-03T17:07:47;12.00;32.70
1021;DHT22;499;42.648;23.270;2022-10-03T17:10:28;12.10;35.10
1021;DHT22;499;42.648;23.270;2022-10-03T17:12:57;12.10;35.90
1021;DHT22;499;42.648;23.270;2022-10-03T17:15:28;12.10;37.60
1021;DHT22;499;42.648;23.270;2022-10-03T17:18:02;12.10;37.60
1021;DHT22;499;42.648;23.270;2022-10-03T17:20:38;12.10;37.60
1021;DHT22;499;42.648;23.270;2022-10-03T17:23:11;12.10;37.60
1021;DHT22;499;42.648;23.270;2022-10-03T17:25:49;12.10;37.60
1021;DHT22;499;42.648;23.270;2022-10-03T17:28:31;12.00;37.50
1021;DHT22;499;42.648;23.270;2022-10-03T17:31:01;11.90;37.40
1021;DHT22;499;42.648;23.270;2022-10-03T17:33:36;11.90;36.40
1021;DHT22;499;42.648;23.270;2022-10-03T17:36:32;11.90;37.50
1021;DHT22;499;42.648;23.270;2022-10-03T17:39:03;11.90;35.20
1021;DHT22;499;42.648;23.270;2022-10-03T17:41:36;11.80;36.40
1021;DHT22;499;42.648;23.270;2022-10-03T17:44:16;11.70;37.30
1021;DHT22;499;42.648;23.270;2022-10-03T17:46:51;11.60;37.20
1021;DHT22;499;42.648;23.270;2022-10-03T17:49:35;11.60;37.20
1021;DHT22;499;42.648;23.270;2022-10-03T17:52:13;11.60;37.20
1021;DHT22;499;42.648;23.270;2022-10-03T17:54:44;11.50;35.00
1021;DHT22;499;42.648;23.270;2022-10-03T17:57:16;11.50;34.10
1021;DHT22;499;42.648;23.270;2022-10-03T17:59:52;11.40;34.00
1021;DHT22;499;42.648;23.270;2022-10-03T18:02:29;11.30;35.20
1021;DHT22;499;42.648;23.270;2022-10-03T18:05:10;11.30;35.30
1021;DHT22;499;42.648;23.270;2022-10-03T18:07:40;11.30;36.90
1021;DHT22;499;42.648;23.270;2022-10-03T18:10:18;11.30;37.90
1021;DHT22;499;42.648;23.270;2022-10-03T18:12:46;11.20;38.00
1021;DHT22;499;42.648;23.270;2022-10-03T18:21:14;11.20;39.70
1021;DHT22;499;42.648;23.270;2022-10-03T18:23:53;11.20;38.60
1021;DHT22;499;42.648;23.270;2022-10-03T18:26:27;11.20;38.30
1021;DHT22;499;42.648;23.270;2022-10-03T18:29:16;11.20;38.00
1021;DHT22;499;42.648;23.270;2022-10-03T18:31:51;11.20;38.80
1021;DHT22;499;42.648;23.270;2022-10-03T18:34:27;11.20;38.50
1021;DHT22;499;42.648;23.270;2022-10-03T18:37:00;11.20;38.40
1021;DHT22;499;42.648;23.270;2022-10-03T18:39:32;11.20;38.80
1021;DHT22;499;42.648;23.270;2022-10-03T18:42:07;11.20;39.60
1021;DHT22;499;42.648;23.270;2022-10-03T18:44:36;11.20;41.00
1021;DHT22;499;42.648;23.270;2022-10-03T18:47:18;11.20;41.10
1021;DHT22;499;42.648;23.270;2022-10-03T18:49:55;11.20;39.60
1021;DHT22;499;42.648;23.270;2022-10-03T18:52:32;11.20;40.30
1021;DHT22;499;42.648;23.270;2022-10-03T18:55:14;11.10;41.00
1021;DHT22;499;42.648;23.270;2022-10-03T18:57:46;11.10;41.40
1021;DHT22;499;42.648;23.270;2022-10-03T19:00:16;11.00;41.30
1021;DHT22;499;42.648;23.270;2022-10-03T19:02:49;11.00;42.80
1021;DHT22;499;42.648;23.270;2022-10-03T19:05:20;10.90;44.80
1021;DHT22;499;42.648;23.270;2022-10-03T19:07:51;10.90;44.60
1021;DHT22;499;42.648;23.270;2022-10-03T19:10:31;10.80;45.90
1021;DHT22;499;42.648;23.270;2022-10-03T19:13:16;10.80;46.50
1021;DHT22;499;42.648;23.270;2022-10-03T19:16:02;10.80;46.20
1021;DHT22;499;42.648;23.270;2022-10-03T19:18:40;10.70;47.80
1021;DHT22;499;42.648;23.270;2022-10-03T19:21:11;10.70;47.40
1021;DHT22;499;42.648;23.270;2022-10-03T19:23:45;10.70;48.20
1021;DHT22;499;42.648;23.270;2022-10-03T19:26:22;10.70;48.10
1021;DHT22;499;42.648;23.270;2022-10-03T19:28:54;10.70;47.70
1021;DHT22;499;42.648;23.270;2022-10-03T19:31:25;10.70;49.50
1021;DHT22;499;42.648;23.270;2022-10-03T19:33:57;10.80;48.90
1021;DHT22;499;42.648;23.270;2022-10-03T19:36:28;10.80;46.60
1021;DHT22;499;42.648;23.270;2022-10-03T19:38:57;10.80;47.10
1021;DHT22;499;42.648;23.270;2022-10-03T19:41:30;10.70;45.80
1021;DHT22;499;42.648;23.270;2022-10-03T19:44:02;10.60;45.90
1021;DHT22;499;42.648;23.270;2022-10-03T19:46:52;10.60;45.90
1021;DHT22;499;42.648;23.270;2022-10-03T19:49:38;10.60;45.60
1021;DHT22;499;42.648;23.270;2022-10-03T19:52:20;10.60;46.20
1021;DHT22;499;42.648;23.270;2022-10-03T19:54:50;10.60;46.80
1021;DHT22;499;42.648;23.270;2022-10-03T19:57:24;10.60;48.10
1021;DHT22;499;42.648;23.270;2022-10-03T19:59:55;10.50;49.10
1021;DHT22;499;42.648;23.270;2022-10-03T20:02:25;10.40;49.00
1021;DHT22;499;42.648;23.270;2022-10-03T20:04:55;10.40;48.20
1021;DHT22;499;42.648;23.270;2022-10-03T20:07:37;10.40;48.20
1021;DHT22;499;42.648;23.270;2022-10-03T20:13:00;10.30;48.80
1021;DHT22;499;42.648;23.270;2022-10-03T20:15:35;10.30;47.10
1021;DHT22;499;42.648;23.270;2022-10-03T20:18:04;10.20;47.10
1021;DHT22;499;42.648;23.270;2022-10-03T20:20:32;10.20;48.60
1021;DHT22;499;42.648;23.270;2022-10-03T20:23:05;10.20;49.10
1021;DHT22;499;42.648;23.270;2022-10-03T20:25:36;10.10;50.30
1021;DHT22;499;42.648;23.270;2022-10-03T20:28:12;10.20;49.90
1021;DHT22;499;42.648;23.270;2022-10-03T20:30:44;10.20;48.30
1021;DHT22;499;42.648;23.270;2022-10-03T20:33:16;10.20;49.10
1021;DHT22;499;42.648;23.270;2022-10-03T20:35:51;10.30;48.50
1021;DHT22;499;42.648;23.270;2022-10-03T20:38:28;10.20;48.00
1021;DHT22;499;42.648;23.270;2022-10-03T20:41:14;10.20;46.10
1021;DHT22;499;42.648;23.270;2022-10-03T20:43:55;10.20;46.80